createdAt,value
2018-07-14T00:04:02.359Z,99834.08
2018-07-14T00:08:46.949Z,99838.56
2018-07-14T00:13:31.517Z,99834.77
2018-07-14T00:18:15.159Z,99836.25
2018-07-14T00:23:01.951Z,99836.95
2018-07-14T00:27:45.582Z,99841.02
2018-07-14T00:32:32.614Z,99860.57
2018-07-14T00:37:16.018Z,99855.30
2018-07-14T00:42:02.762Z,99849.59
2018-07-14T00:46:46.318Z,99847.15
2018-07-14T00:51:30.927Z,99841.25
2018-07-14T00:56:14.605Z,99837.71
2018-07-14T01:01:01.760Z,99822.94
2018-07-14T01:05:45.264Z,99825.31
2018-07-14T01:10:29.864Z,99836.75
2018-07-14T01:15:13.449Z,99835.61
2018-07-14T01:19:57.647Z,99840.09
2018-07-14T01:24:41.059Z,99847.27
2018-07-14T01:29:24.656Z,99848.63
2018-07-14T01:34:12.000Z,99854.48
2018-07-14T01:38:55.485Z,99851.45
2018-07-14T01:43:40.081Z,99842.55
2018-07-14T01:48:23.729Z,99839.93
2018-07-14T01:53:08.281Z,99847.11
2018-07-14T01:57:51.920Z,99847.52
2018-07-14T02:02:43.931Z,99853.75
2018-07-14T02:07:27.463Z,99852.70
2018-07-14T02:12:12.108Z,99849.70
2018-07-14T02:16:55.745Z,99859.88
2018-07-14T02:21:43.031Z,99866.80
2018-07-14T02:26:26.721Z,99865.34
2018-07-14T02:31:11.479Z,99858.86
2018-07-14T02:35:55.149Z,99857.89
2018-07-14T02:40:39.755Z,99848.86
2018-07-14T02:45:23.112Z,99843.34
2018-07-14T02:50:06.894Z,99848.76
2018-07-14T02:54:50.390Z,99842.34
2018-07-14T02:59:33.962Z,99829.81
2018-07-14T03:04:17.514Z,99837.23
2018-07-14T03:09:01.164Z,99840.37
2018-07-14T03:13:45.889Z,99848.31
2018-07-14T03:18:29.541Z,99859.44
2018-07-14T03:23:13.134Z,99869.18
2018-07-14T03:27:56.768Z,99874.02
2018-07-14T03:32:44.006Z,99875.73
2018-07-14T03:37:27.705Z,99876.83
2018-07-14T03:42:11.632Z,99883.70
2018-07-14T03:46:55.225Z,99885.41
2018-07-14T03:51:42.213Z,99884.42
2018-07-14T03:56:25.732Z,99879.95
2018-07-14T04:01:09.247Z,99878.65
2018-07-14T04:05:52.730Z,99866.02
2018-07-14T04:10:40.224Z,99856.59
2018-07-14T04:15:23.842Z,99863.93
2018-07-14T04:20:11.577Z,99874.73
2018-07-14T04:24:55.139Z,99877.08
2018-07-14T04:29:38.809Z,99867.36
2018-07-14T04:34:22.385Z,99880.47
2018-07-14T04:39:06.030Z,99873.36
2018-07-14T04:43:49.828Z,99875.80
2018-07-14T04:48:33.378Z,99865.95
2018-07-14T04:53:17.152Z,99873.44
2018-07-14T04:58:00.601Z,99868.49
2018-07-14T05:02:44.431Z,99878.45
2018-07-14T05:07:28.052Z,99881.91
2018-07-14T05:12:15.047Z,99876.24
2018-07-14T05:16:58.693Z,99877.58
2018-07-14T05:21:42.381Z,99885.85
2018-07-14T05:26:25.823Z,99887.53
2018-07-14T05:31:12.773Z,99873.41
2018-07-14T05:35:56.414Z,99877.75
2018-07-14T05:40:43.834Z,99873.45
2018-07-14T05:45:27.986Z,99875.81
2018-07-14T05:50:11.708Z,99882.75
2018-07-14T05:54:55.323Z,99878.73
2018-07-14T05:59:39.031Z,99880.93
2018-07-14T06:04:22.642Z,99878.63
2018-07-14T06:09:08.750Z,99870.70
2018-07-14T06:13:52.410Z,99861.70
2018-07-14T06:18:36.023Z,99865.95
2018-07-14T06:23:19.840Z,99866.30
2018-07-14T06:28:04.420Z,99868.96
2018-07-14T06:32:48.132Z,99867.09
2018-07-14T06:37:31.675Z,99871.67
2018-07-14T06:42:15.342Z,99869.56
2018-07-14T06:46:59.841Z,99871.61
2018-07-14T06:51:43.926Z,99874.62
2018-07-14T06:56:28.876Z,99874.64
2018-07-14T07:01:16.854Z,99880.80
2018-07-14T07:06:01.261Z,99873.85
2018-07-14T07:10:45.682Z,99876.44
2018-07-14T07:15:29.716Z,99878.91
2018-07-14T07:20:14.556Z,99876.75
2018-07-14T07:24:58.773Z,99880.41
2018-07-14T07:29:43.358Z,99880.55
2018-07-14T07:34:30.315Z,99877.38
2018-07-14T07:39:21.771Z,99877.26
2018-07-14T07:44:06.602Z,99873.11
2018-07-14T07:48:50.387Z,99875.95
2018-07-14T07:53:33.879Z,99877.54
2018-07-14T07:58:19.219Z,99871.95
2018-07-14T08:03:03.132Z,99876.62
2018-07-14T08:07:46.647Z,99886.66
2018-07-14T08:12:31.459Z,99879.98
2018-07-14T08:17:15.025Z,99882.41
2018-07-14T08:21:58.602Z,99877.71
2018-07-14T08:26:42.146Z,99876.17
2018-07-14T08:31:26.777Z,99881.92
2018-07-14T08:36:11.218Z,99877.91
2018-07-14T08:40:55.879Z,99888.49
2018-07-14T08:45:40.473Z,99879.28
2018-07-14T08:50:26.521Z,99885.55
2018-07-14T08:55:10.820Z,99883.98
2018-07-14T08:59:55.563Z,99878.11
2018-07-14T09:04:39.077Z,99886.08
2018-07-14T09:09:22.656Z,99884.44
2018-07-14T09:14:06.195Z,99883.16
2018-07-14T09:18:55.729Z,99887.33
2018-07-14T09:23:39.270Z,99886.75
2018-07-14T09:28:23.016Z,99891.23
2018-07-14T09:33:08.550Z,99881.89
2018-07-14T09:37:52.145Z,99886.59
2018-07-14T09:42:35.850Z,99870.84
2018-07-14T09:47:19.417Z,99877.98
2018-07-14T09:52:03.878Z,99872.63
2018-07-14T09:56:47.399Z,99880.48
2018-07-14T10:01:31.939Z,99870.75
2018-07-14T10:06:15.426Z,99866.81
2018-07-14T10:10:59.051Z,99864.06
2018-07-14T10:15:42.447Z,99856.59
2018-07-14T10:20:29.857Z,99860.35
2018-07-14T10:25:13.466Z,99847.85
2018-07-14T10:29:58.012Z,99851.50
2018-07-14T10:34:41.513Z,99852.73
2018-07-14T10:39:25.051Z,99850.43
2018-07-14T10:44:08.929Z,99850.09
2018-07-14T10:48:52.585Z,99849.40
2018-07-14T10:53:36.213Z,99849.94
2018-07-14T10:58:20.942Z,99850.66
2018-07-14T11:03:04.547Z,99848.08
2018-07-14T11:07:48.172Z,99851.99
2018-07-14T11:12:32.609Z,99839.14
2018-07-14T11:17:16.159Z,99844.59
2018-07-14T11:22:01.412Z,99834.11
2018-07-14T11:26:45.434Z,99829.00
2018-07-14T11:31:38.109Z,99820.44
2018-07-14T11:36:21.637Z,99821.92
2018-07-14T11:41:05.638Z,99812.16
2018-07-14T11:45:49.278Z,99811.20
2018-07-14T11:50:32.996Z,99811.59
2018-07-14T11:55:16.649Z,99806.06
2018-07-14T12:00:03.340Z,99808.58
2018-07-14T12:04:46.781Z,99802.13
2018-07-14T12:09:30.843Z,99806.41
2018-07-14T12:14:16.686Z,99814.29
2018-07-14T12:19:00.532Z,99793.48
2018-07-14T12:23:44.060Z,99792.30
2018-07-14T12:28:38.162Z,99793.06
2018-07-14T12:33:21.623Z,99789.93
2018-07-14T12:38:05.314Z,99785.60
2018-07-14T12:42:48.732Z,99771.30
2018-07-14T12:47:32.589Z,99765.37
2018-07-14T12:52:16.257Z,99771.14
2018-07-14T12:56:59.926Z,99770.00
2018-07-14T13:01:46.468Z,99775.64
2018-07-14T13:06:30.237Z,99774.52
2018-07-14T13:11:13.786Z,99783.39
2018-07-14T13:15:57.354Z,99782.17
2018-07-14T13:20:41.217Z,99765.30
2018-07-14T13:25:24.758Z,99771.68
2018-07-14T13:30:08.548Z,99783.53
2018-07-14T13:34:52.025Z,99775.92
2018-07-14T13:39:35.856Z,99779.16
2018-07-14T13:44:19.333Z,99782.57
2018-07-14T13:49:05.959Z,99776.94
2018-07-14T13:53:49.522Z,99770.65
2018-07-14T13:58:33.284Z,99777.95
2018-07-14T14:03:16.788Z,99777.95
2018-07-14T14:08:00.268Z,99776.48
2018-07-14T14:12:43.787Z,99773.13
2018-07-14T14:17:27.356Z,99767.48
2018-07-14T14:22:12.023Z,99759.33
2018-07-14T14:26:55.561Z,99758.88
2018-07-14T14:31:39.352Z,99755.38
2018-07-14T14:36:22.838Z,99749.98
2018-07-14T14:41:06.614Z,99753.03
2018-07-14T14:45:50.534Z,99750.81
2018-07-14T14:50:35.191Z,99747.98
2018-07-14T14:55:19.031Z,99747.84
2018-07-14T15:00:02.744Z,99740.63
2018-07-14T15:04:46.424Z,99748.83
2018-07-14T15:09:30.136Z,99740.46
2018-07-14T15:14:13.592Z,99739.98
2018-07-14T15:18:57.063Z,99739.98
2018-07-14T15:23:40.666Z,99738.99
2018-07-14T15:28:24.462Z,99745.06
2018-07-14T15:33:08.479Z,99738.27
2018-07-14T15:37:54.364Z,99740.19
2018-07-14T15:42:38.036Z,99736.73
2018-07-14T15:47:21.612Z,99733.17
2018-07-14T15:52:05.733Z,99738.27
2018-07-14T15:56:49.266Z,99738.10
2018-07-14T16:01:33.138Z,99735.64
2018-07-14T16:06:16.754Z,99742.80
2018-07-14T16:11:00.397Z,99744.16
2018-07-14T16:15:44.067Z,99751.64
2018-07-14T16:20:27.933Z,99757.98
2018-07-14T16:25:11.542Z,99748.21
2018-07-14T16:29:55.199Z,99746.50
2018-07-14T16:34:38.757Z,99747.28
2018-07-14T16:39:22.262Z,99737.89
2018-07-14T16:44:05.906Z,99733.80
2018-07-14T16:48:49.607Z,99734.86
2018-07-14T16:53:33.113Z,99734.06
2018-07-14T16:58:16.844Z,99741.26
2018-07-14T17:03:00.929Z,99737.31
2018-07-14T17:07:46.114Z,99736.84
2018-07-14T17:12:29.755Z,99732.20
2018-07-14T17:17:13.264Z,99729.84
2018-07-14T17:22:00.068Z,99735.08
2018-07-14T17:26:43.773Z,99731.87
2018-07-14T17:31:28.346Z,99725.79
2018-07-14T17:36:12.012Z,99724.62
2018-07-14T17:40:56.941Z,99727.81
2018-07-14T17:45:40.706Z,99734.14
2018-07-14T17:50:27.816Z,99732.91
2018-07-14T17:55:11.411Z,99739.04
2018-07-14T17:59:55.462Z,99744.12
2018-07-14T18:04:39.140Z,99742.64
2018-07-14T18:09:26.939Z,99751.08
2018-07-14T18:14:11.317Z,99754.89
2018-07-14T18:18:55.145Z,99758.07
2018-07-14T18:23:38.764Z,99774.84
2018-07-14T18:28:26.274Z,99780.87
2018-07-14T18:33:10.012Z,99774.02
2018-07-14T18:37:53.776Z,99781.59
2018-07-14T18:42:37.451Z,99785.94
2018-07-14T18:47:24.646Z,99792.50
2018-07-14T18:52:08.102Z,99782.38
2018-07-14T18:56:51.501Z,99781.98
2018-07-14T19:01:35.956Z,99774.06
2018-07-14T19:06:19.515Z,99765.51
2018-07-14T19:11:06.984Z,99769.94
2018-07-14T19:15:50.607Z,99762.81
2018-07-14T19:20:34.291Z,99767.18
2018-07-14T19:25:18.891Z,99771.83
2018-07-14T19:30:03.384Z,99772.37
2018-07-14T19:34:47.017Z,99778.59
2018-07-14T19:39:36.881Z,99777.92
2018-07-14T19:44:20.508Z,99781.62
2018-07-14T19:49:08.090Z,99770.11
2018-07-14T19:53:51.719Z,99769.61
2018-07-14T19:58:35.426Z,99768.12
2018-07-14T20:03:19.044Z,99777.80
2018-07-14T20:08:03.266Z,99779.45
2018-07-14T20:12:46.777Z,99775.44
2018-07-14T20:17:32.386Z,99774.06
2018-07-14T20:22:16.043Z,99776.75
2018-07-14T20:27:00.841Z,99781.29
2018-07-14T20:31:44.615Z,99781.42
2018-07-14T20:36:28.290Z,99792.98
2018-07-14T20:41:15.614Z,99797.31
2018-07-14T20:45:59.233Z,99795.31
2018-07-14T20:50:43.922Z,99795.80
2018-07-14T20:55:27.643Z,99800.83
2018-07-14T21:00:12.818Z,99803.97
2018-07-14T21:04:56.446Z,99791.96
2018-07-14T21:09:40.360Z,99799.55
2018-07-14T21:14:24.234Z,99792.89
2018-07-14T21:19:07.890Z,99793.80
2018-07-14T21:23:51.415Z,99788.36
2018-07-14T21:28:38.965Z,99782.02
2018-07-14T21:33:22.649Z,99783.62
2018-07-14T21:38:10.018Z,99771.91
2018-07-14T21:42:53.602Z,99767.72
2018-07-14T21:47:38.206Z,99767.68
2018-07-14T21:52:21.838Z,99771.69
2018-07-14T21:57:06.573Z,99773.47
2018-07-14T22:01:51.382Z,99780.81
2018-07-14T22:06:34.903Z,99773.84
2018-07-14T22:11:18.510Z,99768.23
2018-07-14T22:16:02.126Z,99771.84
2018-07-14T22:20:46.846Z,99768.89
2018-07-14T22:25:30.498Z,99773.73
2018-07-14T22:30:15.224Z,99763.63
2018-07-14T22:34:58.829Z,99757.64
2018-07-14T22:39:42.501Z,99762.64
2018-07-14T22:44:26.128Z,99756.91
2018-07-14T22:49:10.045Z,99744.45
2018-07-14T22:53:53.590Z,99750.84
2018-07-14T22:58:38.358Z,99732.77
2018-07-14T23:03:22.683Z,99729.21
2018-07-14T23:08:09.732Z,99726.00
2018-07-14T23:12:53.261Z,99715.43
2018-07-14T23:17:37.063Z,99710.45
2018-07-14T23:22:20.675Z,99704.79
2018-07-14T23:27:04.282Z,99704.30
2018-07-14T23:31:47.818Z,99701.08
2018-07-14T23:36:34.907Z,99707.25
2018-07-14T23:41:18.395Z,99701.34
2018-07-14T23:46:01.748Z,99697.24
2018-07-14T23:50:45.238Z,99693.82
2018-07-14T23:55:28.705Z,99701.47
